createdAt,value
2019-03-06T00:00:33.574Z,80.33
2019-03-06T00:01:37.159Z,80.27
2019-03-06T00:02:40.580Z,80.13
2019-03-06T00:03:44.079Z,79.93
2019-03-06T00:04:47.506Z,79.89
2019-03-06T00:05:51.163Z,79.92
2019-03-06T00:06:54.693Z,79.64
2019-03-06T00:07:58.193Z,79.44
2019-03-06T00:09:01.648Z,79.54
2019-03-06T00:10:23.065Z,79.58
2019-03-06T00:11:26.500Z,79.66
2019-03-06T00:12:30.017Z,79.73
2019-03-06T00:13:33.437Z,79.78
2019-03-06T00:14:36.934Z,79.69
2019-03-06T00:15:40.488Z,79.74
2019-03-06T00:16:44.063Z,79.63
2019-03-06T00:17:47.654Z,79.60
2019-03-06T00:18:51.322Z,79.83
2019-03-06T00:19:54.796Z,79.86
2019-03-06T00:20:58.193Z,79.91
2019-03-06T00:22:01.619Z,79.89
2019-03-06T00:23:05.146Z,79.99
2019-03-06T00:24:08.707Z,80.08
2019-03-06T00:25:12.394Z,80.14
2019-03-06T00:26:15.818Z,80.24
2019-03-06T00:27:19.235Z,80.16
2019-03-06T00:28:22.676Z,79.98
2019-03-06T00:29:26.121Z,79.88
2019-03-06T00:30:29.544Z,79.82
2019-03-06T00:31:32.970Z,79.76
2019-03-06T00:32:36.389Z,79.82
2019-03-06T00:33:39.828Z,79.86
2019-03-06T00:34:43.418Z,79.87
2019-03-06T00:35:48.757Z,79.82
2019-03-06T00:36:52.421Z,79.77
2019-03-06T00:37:55.912Z,79.80
2019-03-06T00:38:59.490Z,79.96
2019-03-06T00:40:04.548Z,79.98
2019-03-06T00:41:12.699Z,79.96
2019-03-06T00:42:16.151Z,79.82
2019-03-06T00:43:19.716Z,79.87
2019-03-06T00:44:23.158Z,80.13
2019-03-06T00:45:26.651Z,80.11
2019-03-06T00:46:30.078Z,80.21
2019-03-06T00:47:33.650Z,80.05
2019-03-06T00:48:37.064Z,79.98
2019-03-06T00:49:40.531Z,80.01
2019-03-06T00:50:43.982Z,80.14
2019-03-06T00:51:47.470Z,80.15
2019-03-06T00:52:50.952Z,80.01
2019-03-06T00:53:54.548Z,79.92
2019-03-06T00:54:58.291Z,79.69
2019-03-06T00:56:01.781Z,79.58
2019-03-06T00:57:05.209Z,79.66
2019-03-06T00:58:08.650Z,79.53
2019-03-06T00:59:12.134Z,79.54
2019-03-06T01:00:19.569Z,79.37
2019-03-06T01:01:23.046Z,79.19
2019-03-06T01:02:26.536Z,79.03
2019-03-06T01:03:29.955Z,78.94
2019-03-06T01:04:33.373Z,78.93
2019-03-06T01:05:36.818Z,78.91
2019-03-06T01:06:40.311Z,78.90
2019-03-06T01:07:43.809Z,78.83
2019-03-06T01:08:47.321Z,78.86
2019-03-06T01:09:50.750Z,78.87
2019-03-06T01:10:54.219Z,78.71
2019-03-06T01:11:57.704Z,78.61
2019-03-06T01:13:01.391Z,78.72
2019-03-06T01:14:04.952Z,79.02
2019-03-06T01:15:10.622Z,79.09
2019-03-06T01:16:14.221Z,79.23
2019-03-06T01:17:17.715Z,79.30
2019-03-06T01:18:21.206Z,79.49
2019-03-06T01:19:24.703Z,79.41
2019-03-06T01:20:28.264Z,79.47
2019-03-06T01:21:31.791Z,79.61
2019-03-06T01:22:35.301Z,79.66
2019-03-06T01:23:38.812Z,79.59
2019-03-06T01:24:42.226Z,79.56
2019-03-06T01:25:45.724Z,79.40
2019-03-06T01:26:49.168Z,79.46
2019-03-06T01:27:52.613Z,79.38
2019-03-06T01:28:56.035Z,79.28
2019-03-06T01:29:59.537Z,79.11
2019-03-06T01:31:03.130Z,79.00
2019-03-06T01:32:06.718Z,78.92
2019-03-06T01:33:27.732Z,78.88
2019-03-06T01:34:35.585Z,78.86
2019-03-06T01:35:46.107Z,78.85
2019-03-06T01:36:51.240Z,78.92
2019-03-06T01:38:12.388Z,78.91
2019-03-06T01:39:17.462Z,78.86
2019-03-06T01:40:38.730Z,78.89
2019-03-06T01:41:43.881Z,78.83
2019-03-06T01:42:48.959Z,79.08
2019-03-06T01:43:56.454Z,79.19
2019-03-06T01:44:59.884Z,79.03
2019-03-06T01:46:03.370Z,79.06
2019-03-06T01:47:06.792Z,79.24
2019-03-06T01:48:10.226Z,79.31
2019-03-06T01:49:13.669Z,79.38
2019-03-06T01:50:17.168Z,79.47
2019-03-06T01:51:20.844Z,79.54
2019-03-06T01:52:24.260Z,79.51
2019-03-06T01:53:27.690Z,79.58
2019-03-06T01:54:31.272Z,79.59
2019-03-06T01:55:37.115Z,79.60
2019-03-06T01:56:40.535Z,79.79
2019-03-06T01:57:44.026Z,79.91
2019-03-06T01:58:47.450Z,79.98
2019-03-06T01:59:50.894Z,80.07
2019-03-06T02:00:55.041Z,80.36
2019-03-06T02:01:58.531Z,80.33
2019-03-06T02:03:02.019Z,80.24
2019-03-06T02:04:05.506Z,80.18
2019-03-06T02:05:11.291Z,80.05
2019-03-06T02:06:14.816Z,80.00
2019-03-06T02:07:18.414Z,79.81
2019-03-06T02:08:21.922Z,79.76
2019-03-06T02:09:27.716Z,79.57
2019-03-06T02:10:32.371Z,79.55
2019-03-06T02:11:35.965Z,79.68
2019-03-06T02:12:39.528Z,80.00
2019-03-06T02:13:42.933Z,80.00
2019-03-06T02:14:46.429Z,79.96
2019-03-06T02:15:49.941Z,80.13
2019-03-06T02:16:53.464Z,80.25
2019-03-06T02:17:56.892Z,80.37
2019-03-06T02:19:01.348Z,80.42
2019-03-06T02:20:07.512Z,80.33
2019-03-06T02:21:11.142Z,80.31
2019-03-06T02:22:14.630Z,80.30
2019-03-06T02:23:18.143Z,80.35
2019-03-06T02:24:21.563Z,80.35
2019-03-06T02:25:25.057Z,80.25
2019-03-06T02:26:28.578Z,80.17
2019-03-06T02:27:31.998Z,79.95
2019-03-06T02:28:35.570Z,79.87
2019-03-06T02:29:39.156Z,79.91
2019-03-06T02:30:42.656Z,79.99
2019-03-06T02:31:46.116Z,79.94
2019-03-06T02:32:49.714Z,79.88
2019-03-06T02:33:53.187Z,79.87
2019-03-06T02:34:56.565Z,79.88
2019-03-06T02:36:00.054Z,79.37
2019-03-06T02:37:03.560Z,79.14
2019-03-06T02:38:07.013Z,79.07
2019-03-06T02:39:10.775Z,78.78
2019-03-06T02:40:17.342Z,78.66
2019-03-06T02:41:20.765Z,78.52
2019-03-06T02:42:24.210Z,78.26
2019-03-06T02:43:27.665Z,78.35
2019-03-06T02:44:31.093Z,78.39
2019-03-06T02:45:34.666Z,78.57
2019-03-06T02:46:38.165Z,78.79
2019-03-06T02:47:41.624Z,78.87
2019-03-06T02:48:45.050Z,78.85
2019-03-06T02:49:48.482Z,79.04
2019-03-06T02:50:51.902Z,79.04
2019-03-06T02:51:55.328Z,79.12
2019-03-06T02:52:58.799Z,79.19
2019-03-06T02:54:02.246Z,79.33
2019-03-06T02:55:07.918Z,79.31
2019-03-06T02:56:11.336Z,79.28
2019-03-06T02:57:14.798Z,79.22
2019-03-06T02:58:19.943Z,79.33
2019-03-06T02:59:27.689Z,79.38
2019-03-06T03:00:35.390Z,79.28
2019-03-06T03:01:40.441Z,79.32
2019-03-06T03:02:45.512Z,79.53
2019-03-06T03:04:06.557Z,79.48
2019-03-06T03:05:14.883Z,79.39
2019-03-06T03:06:19.962Z,79.21
2019-03-06T03:07:23.449Z,79.34
2019-03-06T03:08:26.903Z,79.42
2019-03-06T03:09:30.357Z,79.43
2019-03-06T03:10:33.863Z,79.51
2019-03-06T03:11:37.573Z,79.58
2019-03-06T03:12:41.169Z,79.69
2019-03-06T03:13:44.602Z,79.58
2019-03-06T03:14:48.063Z,79.58
2019-03-06T03:15:51.525Z,79.62
2019-03-06T03:16:54.961Z,79.70
2019-03-06T03:17:58.371Z,79.61
2019-03-06T03:19:01.801Z,79.56
2019-03-06T03:20:07.387Z,79.52
2019-03-06T03:21:10.807Z,79.60
2019-03-06T03:22:14.233Z,79.60
2019-03-06T03:23:17.683Z,79.38
2019-03-06T03:24:21.095Z,79.24
2019-03-06T03:25:24.605Z,79.19
2019-03-06T03:26:28.112Z,79.30
2019-03-06T03:27:31.530Z,79.34
2019-03-06T03:28:35.250Z,79.44
2019-03-06T03:29:38.736Z,79.57
2019-03-06T03:30:42.200Z,79.73
2019-03-06T03:31:45.614Z,79.83
2019-03-06T03:32:49.024Z,79.93
2019-03-06T03:33:52.475Z,80.02
2019-03-06T03:34:56.018Z,80.09
2019-03-06T03:35:59.477Z,80.21
2019-03-06T03:37:02.927Z,80.18
2019-03-06T03:38:06.426Z,80.08
2019-03-06T03:39:09.947Z,79.94
2019-03-06T03:40:15.507Z,80.02
2019-03-06T03:41:18.954Z,80.07
2019-03-06T03:42:22.509Z,80.06
2019-03-06T03:43:25.894Z,80.06
2019-03-06T03:44:29.398Z,80.06
2019-03-06T03:45:33.150Z,80.07
2019-03-06T03:46:36.604Z,80.03
2019-03-06T03:47:40.029Z,80.00
2019-03-06T03:48:43.555Z,79.96
2019-03-06T03:49:47.006Z,79.87
2019-03-06T03:50:50.528Z,79.79
2019-03-06T03:51:53.980Z,79.72
2019-03-06T03:52:57.425Z,79.65
2019-03-06T03:54:00.950Z,79.78
2019-03-06T03:55:06.816Z,79.86
2019-03-06T03:56:10.229Z,79.87
2019-03-06T03:57:13.759Z,79.90
2019-03-06T03:58:17.428Z,79.84
2019-03-06T03:59:20.874Z,79.83
2019-03-06T04:00:24.549Z,79.76
2019-03-06T04:01:28.239Z,79.78
2019-03-06T04:02:31.763Z,79.69
2019-03-06T04:03:35.210Z,79.65
2019-03-06T04:04:38.711Z,79.74
2019-03-06T04:05:42.341Z,79.86
2019-03-06T04:06:45.930Z,80.00
2019-03-06T04:07:49.371Z,80.00
2019-03-06T04:08:52.903Z,80.06
2019-03-06T04:09:56.400Z,79.99
2019-03-06T04:10:59.858Z,79.84
2019-03-06T04:12:03.290Z,79.92
2019-03-06T04:13:06.726Z,80.03
2019-03-06T04:14:10.160Z,80.07
2019-03-06T04:15:17.811Z,80.07
2019-03-06T04:16:21.246Z,80.04
2019-03-06T04:17:24.748Z,80.03
2019-03-06T04:18:28.556Z,80.07
2019-03-06T04:19:32.064Z,80.05
2019-03-06T04:20:35.495Z,80.09
2019-03-06T04:21:38.929Z,80.19
2019-03-06T04:22:42.353Z,80.14
2019-03-06T04:23:45.813Z,80.10
2019-03-06T04:24:49.247Z,80.25
2019-03-06T04:25:52.678Z,80.37
2019-03-06T04:26:56.182Z,80.25
2019-03-06T04:27:59.611Z,80.24
2019-03-06T04:29:03.077Z,80.08
2019-03-06T04:30:11.941Z,79.93
2019-03-06T04:31:15.372Z,79.90
2019-03-06T04:32:18.823Z,79.93
2019-03-06T04:33:22.358Z,80.00
2019-03-06T04:34:25.789Z,80.10
2019-03-06T04:35:29.514Z,80.24
2019-03-06T04:36:32.997Z,80.19
2019-03-06T04:37:36.437Z,80.04
2019-03-06T04:38:39.876Z,79.95
2019-03-06T04:39:43.327Z,79.92
2019-03-06T04:40:46.849Z,79.95
2019-03-06T04:41:50.278Z,79.97
2019-03-06T04:42:53.793Z,80.02
2019-03-06T04:43:57.637Z,80.16
2019-03-06T04:45:01.099Z,80.28
2019-03-06T04:46:04.682Z,80.39
2019-03-06T04:47:08.137Z,80.50
2019-03-06T04:48:11.634Z,80.57
2019-03-06T04:49:15.074Z,80.50
2019-03-06T04:50:18.589Z,80.38
2019-03-06T04:51:22.020Z,80.31
2019-03-06T04:52:25.627Z,80.28
2019-03-06T04:53:29.053Z,80.21
2019-03-06T04:54:32.487Z,80.24
2019-03-06T04:55:35.960Z,80.26
2019-03-06T04:56:39.493Z,80.30
2019-03-06T04:57:42.928Z,80.30
2019-03-06T04:58:46.376Z,80.42
2019-03-06T04:59:49.812Z,80.56
2019-03-06T05:00:53.368Z,80.59
2019-03-06T05:01:56.797Z,80.60
2019-03-06T05:03:00.264Z,80.53
2019-03-06T05:04:03.695Z,80.54
2019-03-06T05:05:07.238Z,80.59
2019-03-06T05:06:10.730Z,80.58
2019-03-06T05:07:14.167Z,80.61
2019-03-06T05:08:17.681Z,80.57
2019-03-06T05:09:21.390Z,80.59
2019-03-06T05:10:24.838Z,80.52
2019-03-06T05:11:28.297Z,80.43
2019-03-06T05:12:31.721Z,80.39
2019-03-06T05:13:35.160Z,80.35
2019-03-06T05:14:38.591Z,80.33
2019-03-06T05:15:42.161Z,80.32
2019-03-06T05:16:59.508Z,80.30
2019-03-06T05:18:16.374Z,80.33
2019-03-06T05:19:19.880Z,80.39
2019-03-06T05:20:23.312Z,80.54
2019-03-06T05:21:26.751Z,80.38
2019-03-06T05:22:30.203Z,80.40
2019-03-06T05:23:33.653Z,80.29
2019-03-06T05:24:37.096Z,80.13
2019-03-06T05:25:40.591Z,80.21
2019-03-06T05:26:44.071Z,80.22
2019-03-06T05:27:47.589Z,80.26
2019-03-06T05:28:51.032Z,80.22
2019-03-06T05:29:54.461Z,80.18
2019-03-06T05:30:57.885Z,79.90
2019-03-06T05:32:30.008Z,79.89
2019-03-06T05:33:33.467Z,79.91
2019-03-06T05:34:36.901Z,79.92
2019-03-06T05:35:52.265Z,79.92
2019-03-06T05:37:07.739Z,79.95
2019-03-06T05:38:19.822Z,80.08
2019-03-06T05:39:23.265Z,80.38
2019-03-06T05:40:26.701Z,80.47
2019-03-06T05:41:30.195Z,80.33
2019-03-06T05:42:33.689Z,80.35
2019-03-06T05:43:37.134Z,80.54
2019-03-06T05:44:40.594Z,80.53
2019-03-06T05:45:44.118Z,80.50
2019-03-06T05:46:47.559Z,80.47
2019-03-06T05:47:50.992Z,80.44
2019-03-06T05:48:54.624Z,80.33
2019-03-06T05:49:58.257Z,80.30
2019-03-06T05:51:01.723Z,80.34
2019-03-06T05:52:05.149Z,80.43
2019-03-06T05:53:08.663Z,80.46
2019-03-06T05:54:12.185Z,80.45
2019-03-06T05:55:15.638Z,80.41
2019-03-06T05:56:19.136Z,80.33
2019-03-06T05:57:22.569Z,80.26
2019-03-06T05:58:25.998Z,80.28
2019-03-06T05:59:29.445Z,80.32
2019-03-06T06:00:32.871Z,80.30
2019-03-06T06:01:36.304Z,80.41
2019-03-06T06:02:39.747Z,80.21
2019-03-06T06:03:43.200Z,80.12
2019-03-06T06:04:46.674Z,80.10
2019-03-06T06:05:50.101Z,80.07
2019-03-06T06:06:53.702Z,79.89
2019-03-06T06:07:57.210Z,79.92
2019-03-06T06:09:00.638Z,79.98
2019-03-06T06:10:05.924Z,80.01
2019-03-06T06:11:09.385Z,80.06
2019-03-06T06:12:12.809Z,80.17
2019-03-06T06:13:16.236Z,80.08
2019-03-06T06:14:19.662Z,79.99
2019-03-06T06:15:23.116Z,79.94
2019-03-06T06:16:26.626Z,79.96
2019-03-06T06:17:30.072Z,79.89
2019-03-06T06:18:33.505Z,79.96
2019-03-06T06:19:36.998Z,80.06
2019-03-06T06:20:40.442Z,80.09
2019-03-06T06:21:48.319Z,80.09
2019-03-06T06:22:58.844Z,80.15
2019-03-06T06:24:03.906Z,80.11
2019-03-06T06:25:07.577Z,80.11
2019-03-06T06:26:11.021Z,80.08
2019-03-06T06:27:14.598Z,80.05
2019-03-06T06:28:18.305Z,79.92
2019-03-06T06:29:21.746Z,79.78
2019-03-06T06:30:25.170Z,79.81
2019-03-06T06:31:29.266Z,79.83
2019-03-06T06:32:33.073Z,79.85
2019-03-06T06:33:36.551Z,79.91
2019-03-06T06:34:39.972Z,79.87
2019-03-06T06:35:43.407Z,79.86
2019-03-06T06:36:46.875Z,79.80
2019-03-06T06:37:50.342Z,79.82
2019-03-06T06:38:53.767Z,79.83
2019-03-06T06:39:57.188Z,79.85
2019-03-06T06:41:00.615Z,79.91
2019-03-06T06:42:04.058Z,79.82
2019-03-06T06:43:07.510Z,79.77
2019-03-06T06:44:11.013Z,79.67
2019-03-06T06:45:17.952Z,79.59
2019-03-06T06:46:21.379Z,79.56
2019-03-06T06:47:24.835Z,79.55
2019-03-06T06:48:29.443Z,79.43
2019-03-06T06:49:32.950Z,79.31
2019-03-06T06:50:38.539Z,79.29
2019-03-06T06:52:10.668Z,79.17
2019-03-06T06:53:25.907Z,79.11
2019-03-06T06:54:44.112Z,79.12
2019-03-06T06:56:05.510Z,79.08
2019-03-06T06:57:14.666Z,79.09
2019-03-06T06:58:32.916Z,79.02
2019-03-06T06:59:48.216Z,78.94
2019-03-06T07:01:11.112Z,78.76
2019-03-06T07:02:36.780Z,78.52
2019-03-06T07:04:22.323Z,78.16
2019-03-06T07:05:32.845Z,78.08
2019-03-06T07:06:46.910Z,77.72
2019-03-06T07:08:07.792Z,77.71
2019-03-06T07:09:12.859Z,77.67
2019-03-06T07:10:33.877Z,77.56
2019-03-06T07:11:41.729Z,77.47
2019-03-06T07:12:49.341Z,77.12
2019-03-06T07:13:57.090Z,76.95
2019-03-06T07:15:04.700Z,76.94
2019-03-06T07:16:12.531Z,76.78
2019-03-06T07:17:23.105Z,76.76
2019-03-06T07:18:30.855Z,76.14
2019-03-06T07:19:35.921Z,76.03
2019-03-06T07:20:57.084Z,75.83
2019-03-06T07:22:02.222Z,75.59
2019-03-06T07:23:10.270Z,75.40
2019-03-06T07:24:21.154Z,74.92
2019-03-06T07:25:26.221Z,74.72
2019-03-06T07:26:37.203Z,74.28
2019-03-06T07:27:50.994Z,74.08
2019-03-06T07:29:02.247Z,74.41
2019-03-06T07:30:10.561Z,74.11
2019-03-06T07:31:21.938Z,74.11
2019-03-06T07:32:42.192Z,74.11
2019-03-06T07:33:49.944Z,73.97
2019-03-06T07:35:45.848Z,73.89
2019-03-06T07:36:53.811Z,73.89
2019-03-06T07:37:58.871Z,73.48
2019-03-06T07:39:03.670Z,73.49
2019-03-06T07:40:09.398Z,73.51
2019-03-06T07:41:30.742Z,73.64
2019-03-06T07:42:36.003Z,73.73
2019-03-06T07:43:52.770Z,73.69
2019-03-06T07:45:49.934Z,73.37
2019-03-06T07:47:03.719Z,73.19
2019-03-06T07:48:17.670Z,72.69
2019-03-06T07:49:22.909Z,72.40
2019-03-06T07:50:33.879Z,72.45
2019-03-06T07:51:44.635Z,72.20
2019-03-06T07:53:00.755Z,72.36
2019-03-06T07:54:06.899Z,72.48
2019-03-06T07:55:11.974Z,72.41
2019-03-06T07:56:32.907Z,71.43
2019-03-06T07:57:41.033Z,71.15
2019-03-06T07:58:54.837Z,71.22
2019-03-06T07:59:58.257Z,70.81
2019-03-06T08:01:01.688Z,70.81
2019-03-06T08:02:26.066Z,71.04
2019-03-06T08:03:29.520Z,70.37
2019-03-06T08:04:33.022Z,69.66
2019-03-06T08:05:36.451Z,69.74
2019-03-06T08:06:41.915Z,69.52
2019-03-06T08:07:46.396Z,69.48
2019-03-06T08:08:49.859Z,69.04
2019-03-06T08:09:53.425Z,68.94
2019-03-06T08:10:57.224Z,69.23
2019-03-06T08:12:08.095Z,68.82
2019-03-06T08:13:16.070Z,69.09
2019-03-06T08:14:36.838Z,68.90
2019-03-06T08:15:44.586Z,68.98
2019-03-06T08:16:49.646Z,68.90
2019-03-06T08:18:03.575Z,69.07
2019-03-06T08:19:17.426Z,69.24
2019-03-06T08:20:22.628Z,69.21
2019-03-06T08:21:30.690Z,68.98
2019-03-06T08:22:38.580Z,69.03
2019-03-06T08:23:43.729Z,67.64
2019-03-06T08:24:54.750Z,67.40
2019-03-06T08:25:58.246Z,67.44
2019-03-06T08:27:01.662Z,66.85
2019-03-06T08:28:05.266Z,66.45
2019-03-06T08:29:08.813Z,66.75
2019-03-06T08:30:12.558Z,65.76
2019-03-06T08:31:23.436Z,65.45
2019-03-06T08:32:28.893Z,65.73
2019-03-06T08:33:32.304Z,65.19
2019-03-06T08:34:35.841Z,65.72
2019-03-06T08:35:39.404Z,65.74
2019-03-06T08:36:42.906Z,65.64
2019-03-06T08:37:46.321Z,65.68
2019-03-06T08:38:49.844Z,65.57
2019-03-06T08:39:53.543Z,65.07
2019-03-06T08:41:03.860Z,65.55
2019-03-06T08:42:02.185Z,64.90
2019-03-06T08:43:08.351Z,65.28
2019-03-06T08:44:11.799Z,64.74
2019-03-06T08:45:33.330Z,64.44
2019-03-06T08:46:38.457Z,64.68
2019-03-06T08:47:55.328Z,64.43
2019-03-06T08:49:16.538Z,64.49
2019-03-06T08:50:30.404Z,64.75
2019-03-06T08:51:41.042Z,63.94
2019-03-06T08:52:46.207Z,63.82
2019-03-06T08:53:57.085Z,63.34
2019-03-06T08:55:02.250Z,63.54
2019-03-06T08:56:23.519Z,63.39
2019-03-06T08:57:28.716Z,63.09
2019-03-06T08:58:49.992Z,62.89
2019-03-06T09:00:00.990Z,63.05
2019-03-06T09:01:33.749Z,63.37
2019-03-06T09:02:50.625Z,62.71
2019-03-06T09:04:07.560Z,62.61
2019-03-06T09:05:13.867Z,62.64
2019-03-06T09:06:28.171Z,62.41
2019-03-06T09:07:39.027Z,61.62
2019-03-06T09:08:46.829Z,60.74
2019-03-06T09:10:07.574Z,60.69
2019-03-06T09:11:12.654Z,60.53
2019-03-06T09:12:20.461Z,60.77
2019-03-06T09:13:37.414Z,59.96
2019-03-06T09:14:48.327Z,59.86
2019-03-06T09:15:53.378Z,59.85
2019-03-06T09:17:10.419Z,59.38
2019-03-06T09:18:21.456Z,59.37
2019-03-06T09:19:41.645Z,59.51
2019-03-06T09:20:55.525Z,59.32
2019-03-06T09:22:00.660Z,58.54
2019-03-06T09:23:12.175Z,58.52
2019-03-06T09:24:32.928Z,57.47
2019-03-06T09:25:43.718Z,57.18
2019-03-06T09:27:00.963Z,56.90
2019-03-06T09:28:06.123Z,56.74
2019-03-06T09:29:11.328Z,55.93
2019-03-06T09:30:25.510Z,55.93
2019-03-06T09:31:30.572Z,55.43
2019-03-06T09:32:44.824Z,55.43
2019-03-06T09:34:01.648Z,56.31
2019-03-06T09:35:24.694Z,56.31
2019-03-06T09:36:38.659Z,56.34
2019-03-06T09:37:52.220Z,55.93
2019-03-06T09:39:06.055Z,55.93
2019-03-06T09:40:29.716Z,54.88
2019-03-06T09:41:43.847Z,54.68
2019-03-06T09:42:54.492Z,54.38
2019-03-06T09:44:17.671Z,54.79
2019-03-06T09:45:25.441Z,54.36
2019-03-06T09:46:32.984Z,54.36
2019-03-06T09:47:53.776Z,53.34
2019-03-06T09:49:13.557Z,53.29
2019-03-06T09:50:37.538Z,53.68
2019-03-06T09:51:51.719Z,53.64
2019-03-06T09:53:02.473Z,53.69
2019-03-06T09:54:13.650Z,53.92
2019-03-06T09:55:30.920Z,54.09
2019-03-06T09:56:51.781Z,53.97
2019-03-06T09:57:59.568Z,54.04
2019-03-06T09:59:04.647Z,53.98
2019-03-06T10:00:21.571Z,53.72
2019-03-06T10:01:38.517Z,53.35
2019-03-06T10:02:49.252Z,53.94
2019-03-06T10:03:57.092Z,53.12
2019-03-06T10:05:04.822Z,53.00
2019-03-06T10:06:25.883Z,53.01
2019-03-06T10:07:36.561Z,52.38
2019-03-06T10:08:41.766Z,51.66
2019-03-06T10:09:46.852Z,51.56
2019-03-06T10:10:57.521Z,52.10
2019-03-06T10:12:16.908Z,52.12
2019-03-06T10:13:21.975Z,51.97
2019-03-06T10:14:32.784Z,52.29
2019-03-06T10:15:56.175Z,51.82
2019-03-06T10:17:04.051Z,50.64
2019-03-06T10:18:09.128Z,50.77
2019-03-06T10:19:22.899Z,50.77
2019-03-06T10:20:26.833Z,50.97
2019-03-06T10:21:30.255Z,51.51
2019-03-06T10:22:33.683Z,51.30
2019-03-06T10:23:37.352Z,50.79
2019-03-06T10:24:40.806Z,51.18
2019-03-06T10:25:44.243Z,50.29
2019-03-06T10:26:47.751Z,50.09
2019-03-06T10:27:51.206Z,50.39
2019-03-06T10:28:54.696Z,50.31
2019-03-06T10:29:58.276Z,50.55
2019-03-06T10:31:02.805Z,50.29
2019-03-06T10:32:06.342Z,50.18
2019-03-06T10:33:10.005Z,50.56
2019-03-06T10:34:13.495Z,49.93
2019-03-06T10:35:17.121Z,50.25
2019-03-06T10:36:21.109Z,50.32
2019-03-06T10:37:24.612Z,50.32
2019-03-06T10:38:28.111Z,49.72
2019-03-06T10:39:31.636Z,49.92
2019-03-06T10:40:35.087Z,48.90
2019-03-06T10:41:38.694Z,48.57
2019-03-06T10:42:42.130Z,49.27
2019-03-06T10:43:49.098Z,49.18
2019-03-06T10:44:50.789Z,48.79
2019-03-06T10:45:54.313Z,49.00
2019-03-06T10:46:57.817Z,49.67
2019-03-06T10:48:01.495Z,49.12
2019-03-06T10:49:05.347Z,48.20
2019-03-06T10:50:12.065Z,48.50
2019-03-06T10:51:15.601Z,48.89
2019-03-06T10:52:19.292Z,48.01
2019-03-06T10:53:22.856Z,48.60
2019-03-06T10:54:26.476Z,48.24
2019-03-06T10:55:30.114Z,47.98
2019-03-06T10:56:33.880Z,48.63
2019-03-06T10:57:37.504Z,48.39
2019-03-06T10:58:41.148Z,47.42
2019-03-06T10:59:44.911Z,47.87
2019-03-06T11:00:55.271Z,48.01
2019-03-06T11:01:58.803Z,47.97
2019-03-06T11:03:02.402Z,48.53
2019-03-06T11:04:24.083Z,48.76
2019-03-06T11:05:31.810Z,48.44
2019-03-06T11:06:35.377Z,48.28
2019-03-06T11:07:38.892Z,49.01
2019-03-06T11:08:42.387Z,49.38
2019-03-06T11:09:46.057Z,49.22
2019-03-06T11:10:49.637Z,48.81
2019-03-06T11:11:53.326Z,48.48
2019-03-06T11:12:57.718Z,48.10
2019-03-06T11:14:06.149Z,47.98
2019-03-06T11:15:09.414Z,48.35
2019-03-06T11:16:13.280Z,48.45
2019-03-06T11:17:17.187Z,48.60
2019-03-06T11:18:21.148Z,48.55
2019-03-06T11:19:24.712Z,48.20
2019-03-06T11:20:35.455Z,48.18
2019-03-06T11:21:40.425Z,48.08
2019-03-06T11:22:44.014Z,48.01
2019-03-06T11:23:47.664Z,48.07
2019-03-06T11:24:51.179Z,48.59
2019-03-06T11:25:54.740Z,48.49
2019-03-06T11:26:58.318Z,48.49
2019-03-06T11:28:02.159Z,48.14
2019-03-06T11:29:08.560Z,48.35
2019-03-06T11:30:20.972Z,47.61
2019-03-06T11:31:24.607Z,47.43
2019-03-06T11:32:28.168Z,47.34
2019-03-06T11:33:31.766Z,47.09
2019-03-06T11:34:35.334Z,47.16
2019-03-06T11:35:39.475Z,47.65
2019-03-06T11:36:43.134Z,47.78
2019-03-06T11:37:46.704Z,48.28
2019-03-06T11:38:50.213Z,47.62
2019-03-06T11:39:53.793Z,47.16
2019-03-06T11:40:57.976Z,47.00
2019-03-06T11:42:01.655Z,46.79
2019-03-06T11:43:06.922Z,47.37
2019-03-06T11:44:10.613Z,47.50
2019-03-06T11:45:17.172Z,47.21
2019-03-06T11:46:20.773Z,47.81
2019-03-06T11:47:24.358Z,47.44
2019-03-06T11:48:27.852Z,47.12
2019-03-06T11:49:31.314Z,47.58
2019-03-06T11:50:40.933Z,46.76
2019-03-06T11:51:40.107Z,47.19
2019-03-06T11:52:43.841Z,47.54
2019-03-06T11:53:48.041Z,47.08
2019-03-06T11:54:51.507Z,47.04
2019-03-06T11:55:55.168Z,46.93
2019-03-06T11:56:58.662Z,46.50
2019-03-06T11:58:02.226Z,46.24
2019-03-06T11:59:05.716Z,46.39
2019-03-06T12:00:16.675Z,46.42
2019-03-06T12:01:21.832Z,46.91
2019-03-06T12:02:25.399Z,47.01
2019-03-06T12:03:29.029Z,46.37
2019-03-06T12:04:32.553Z,45.77
2019-03-06T12:05:37.639Z,46.33
2019-03-06T12:06:41.251Z,46.29
2019-03-06T12:07:44.669Z,46.42
2019-03-06T12:08:48.229Z,46.34
2019-03-06T12:09:51.740Z,46.72
2019-03-06T12:10:55.595Z,46.73
2019-03-06T12:11:59.671Z,46.83
2019-03-06T12:13:04.631Z,47.00
2019-03-06T12:14:08.261Z,46.97
2019-03-06T12:15:12.460Z,46.81
2019-03-06T12:16:18.554Z,46.37
2019-03-06T12:17:22.160Z,46.61
2019-03-06T12:18:25.672Z,46.59
2019-03-06T12:19:29.250Z,46.71
2019-03-06T12:20:33.076Z,46.54
2019-03-06T12:21:36.874Z,46.10
2019-03-06T12:22:40.453Z,46.26
2019-03-06T12:23:44.020Z,46.16
2019-03-06T12:24:47.493Z,46.45
2019-03-06T12:25:51.091Z,46.05
2019-03-06T12:26:54.518Z,46.47
2019-03-06T12:27:58.040Z,46.13
2019-03-06T12:29:01.455Z,45.74
2019-03-06T12:30:11.081Z,45.48
2019-03-06T12:31:14.615Z,45.62
2019-03-06T12:32:18.063Z,45.63
2019-03-06T12:33:24.086Z,45.37
2019-03-06T12:34:27.497Z,45.44
2019-03-06T12:35:30.947Z,45.30
2019-03-06T12:36:36.128Z,45.30
2019-03-06T12:37:46.710Z,45.46
2019-03-06T12:38:44.855Z,45.58
2019-03-06T12:39:48.455Z,45.59
2019-03-06T12:40:52.032Z,45.88
2019-03-06T12:41:55.555Z,46.12
2019-03-06T12:42:58.990Z,46.15
2019-03-06T12:44:10.215Z,46.04
2019-03-06T12:45:12.686Z,45.78
2019-03-06T12:46:23.629Z,46.06
2019-03-06T12:47:23.921Z,46.09
2019-03-06T12:48:27.366Z,46.06
2019-03-06T12:49:30.901Z,46.48
2019-03-06T12:50:39.255Z,46.42
2019-03-06T12:51:42.683Z,46.08
2019-03-06T12:52:46.266Z,46.09
2019-03-06T12:53:49.711Z,45.83
2019-03-06T12:54:53.206Z,46.14
2019-03-06T12:55:56.701Z,45.95
2019-03-06T12:57:00.203Z,46.22
2019-03-06T12:58:04.672Z,45.97
2019-03-06T12:59:08.340Z,44.85
2019-03-06T13:00:17.431Z,45.46
2019-03-06T13:01:21.436Z,45.80
2019-03-06T13:02:24.907Z,45.93
2019-03-06T13:03:28.422Z,46.09
2019-03-06T13:04:31.946Z,46.05
2019-03-06T13:05:35.495Z,46.25
2019-03-06T13:06:38.924Z,46.26
2019-03-06T13:07:42.417Z,46.06
2019-03-06T13:08:50.414Z,46.20
2019-03-06T13:09:51.155Z,46.20
2019-03-06T13:10:54.587Z,46.63
2019-03-06T13:11:58.237Z,46.20
2019-03-06T13:13:01.901Z,46.56
2019-03-06T13:14:05.665Z,46.19
2019-03-06T13:15:15.206Z,46.35
2019-03-06T13:16:18.784Z,46.08
2019-03-06T13:17:22.442Z,45.40
2019-03-06T13:18:25.939Z,45.85
2019-03-06T13:19:29.385Z,45.67
2019-03-06T13:20:32.879Z,46.12
2019-03-06T13:21:36.446Z,46.60
2019-03-06T13:22:40.304Z,46.41
2019-03-06T13:23:43.805Z,46.33
2019-03-06T13:24:47.417Z,46.41
2019-03-06T13:25:50.921Z,45.94
2019-03-06T13:26:54.348Z,45.77
2019-03-06T13:27:57.796Z,45.82
2019-03-06T13:29:01.556Z,45.28
2019-03-06T13:30:17.361Z,45.33
2019-03-06T13:31:21.090Z,44.60
2019-03-06T13:32:26.446Z,43.88
2019-03-06T13:33:34.056Z,43.86
2019-03-06T13:34:37.554Z,43.62
2019-03-06T13:35:41.142Z,43.39
2019-03-06T13:36:44.579Z,43.85
2019-03-06T13:37:48.006Z,43.96
2019-03-06T13:38:54.998Z,43.72
2019-03-06T13:39:56.658Z,43.34
2019-03-06T13:41:00.171Z,42.69
2019-03-06T13:42:03.838Z,42.46
2019-03-06T13:43:07.516Z,42.49
2019-03-06T13:44:10.943Z,42.50
2019-03-06T13:45:15.567Z,42.84
2019-03-06T13:46:19.157Z,42.58
2019-03-06T13:47:22.759Z,42.87
2019-03-06T13:48:26.179Z,42.74
2019-03-06T13:49:29.602Z,42.68
2019-03-06T13:50:33.182Z,42.87
2019-03-06T13:51:36.658Z,42.69
2019-03-06T13:52:40.163Z,42.62
2019-03-06T13:53:43.620Z,42.99
2019-03-06T13:54:47.043Z,43.33
2019-03-06T13:55:50.545Z,43.55
2019-03-06T13:56:54.042Z,43.77
2019-03-06T13:57:57.534Z,43.81
2019-03-06T13:59:00.952Z,43.67
2019-03-06T14:00:10.102Z,43.50
2019-03-06T14:01:14.372Z,43.21
2019-03-06T14:02:18.249Z,43.36
2019-03-06T14:03:21.824Z,43.16
2019-03-06T14:04:25.316Z,42.92
2019-03-06T14:05:28.886Z,42.48
2019-03-06T14:06:32.759Z,42.61
2019-03-06T14:07:36.206Z,43.11
2019-03-06T14:08:39.655Z,43.66
2019-03-06T14:09:43.157Z,43.34